sensor_id;sensor_type;location;lat;lon;timestamp;P1;durP1;ratioP1;P2;durP2;ratioP2
9449;SDS011;4763;48.370;10.874;2024-01-30T02:37:57;19.37;;;10.27;;
9449;SDS011;4763;48.370;10.874;2024-01-30T02:40:24;19.70;;;9.60;;
9449;SDS011;4763;48.370;10.874;2024-01-30T02:42:52;13.57;;;9.20;;
9449;SDS011;4763;48.370;10.874;2024-01-30T02:45:18;14.97;;;9.57;;
9449;SDS011;4763;48.370;10.874;2024-01-30T02:47:45;18.20;;;10.13;;
9449;SDS011;4763;48.370;10.874;2024-01-30T02:50:12;17.80;;;10.23;;
9449;SDS011;4763;48.370;10.874;2024-01-30T02:52:40;15.93;;;9.03;;
9449;SDS011;4763;48.370;10.874;2024-01-30T02:55:11;20.80;;;10.10;;
9449;SDS011;4763;48.370;10.874;2024-01-30T02:57:38;15.03;;;9.13;;
9449;SDS011;4763;48.370;10.874;2024-01-30T03:00:05;16.80;;;9.63;;
9449;SDS011;4763;48.370;10.874;2024-01-30T03:02:34;13.70;;;8.90;;
9449;SDS011;4763;48.370;10.874;2024-01-30T03:05:01;14.37;;;9.80;;
9449;SDS011;4763;48.370;10.874;2024-01-30T03:07:28;14.97;;;9.20;;
9449;SDS011;4763;48.370;10.874;2024-01-30T03:09:56;16.13;;;10.07;;
9449;SDS011;4763;48.370;10.874;2024-01-30T03:12:24;15.33;;;9.73;;
9449;SDS011;4763;48.370;10.874;2024-01-30T03:14:51;13.17;;;9.20;;
9449;SDS011;4763;48.370;10.874;2024-01-30T03:17:18;15.10;;;8.97;;
9449;SDS011;4763;48.370;10.874;2024-01-30T03:19:45;14.87;;;9.60;;
9449;SDS011;4763;48.370;10.874;2024-01-30T03:22:12;15.93;;;8.37;;
9449;SDS011;4763;48.370;10.874;2024-01-30T03:24:39;17.93;;;9.17;;
9449;SDS011;4763;48.370;10.874;2024-01-30T03:27:06;12.67;;;7.83;;
9449;SDS011;4763;48.370;10.874;2024-01-30T03:29:35;15.20;;;9.50;;
9449;SDS011;4763;48.370;10.874;2024-01-30T03:32:02;16.20;;;8.60;;
9449;SDS011;4763;48.370;10.874;2024-01-30T03:34:30;13.87;;;8.77;;
9449;SDS011;4763;48.370;10.874;2024-01-30T03:36:56;15.10;;;8.33;;
9449;SDS011;4763;48.370;10.874;2024-01-30T03:39:23;17.40;;;9.30;;
9449;SDS011;4763;48.370;10.874;2024-01-30T03:41:50;17.03;;;9.23;;
9449;SDS011;4763;48.370;10.874;2024-01-30T03:44:17;13.77;;;8.23;;
9449;SDS011;4763;48.370;10.874;2024-01-30T03:46:45;14.73;;;8.30;;
9449;SDS011;4763;48.370;10.874;2024-01-30T03:49:12;15.00;;;9.20;;
9449;SDS011;4763;48.370;10.874;2024-01-30T03:51:39;14.90;;;9.37;;
9449;SDS011;4763;48.370;10.874;2024-01-30T03:54:06;14.93;;;8.50;;
9449;SDS011;4763;48.370;10.874;2024-01-30T03:56:34;14.33;;;8.70;;
9449;SDS011;4763;48.370;10.874;2024-01-30T03:59:01;15.03;;;9.40;;
9449;SDS011;4763;48.370;10.874;2024-01-30T04:01:28;11.33;;;7.87;;
9449;SDS011;4763;48.370;10.874;2024-01-30T04:03:56;15.07;;;8.27;;
9449;SDS011;4763;48.370;10.874;2024-01-30T04:06:24;15.27;;;8.47;;
9449;SDS011;4763;48.370;10.874;2024-01-30T04:08:51;13.73;;;8.93;;
9449;SDS011;4763;48.370;10.874;2024-01-30T04:11:18;16.27;;;9.10;;
9449;SDS011;4763;48.370;10.874;2024-01-30T04:13:45;16.97;;;8.80;;
9449;SDS011;4763;48.370;10.874;2024-01-30T04:16:18;12.13;;;8.13;;
9449;SDS011;4763;48.370;10.874;2024-01-30T04:18:47;12.73;;;8.80;;
9449;SDS011;4763;48.370;10.874;2024-01-30T04:21:15;10.43;;;7.80;;
9449;SDS011;4763;48.370;10.874;2024-01-30T04:23:42;10.23;;;7.80;;
9449;SDS011;4763;48.370;10.874;2024-01-30T04:26:08;9.97;;;7.73;;
9449;SDS011;4763;48.370;10.874;2024-01-30T04:28:35;11.67;;;7.87;;
9449;SDS011;4763;48.370;10.874;2024-01-30T04:31:02;14.07;;;8.00;;
9449;SDS011;4763;48.370;10.874;2024-01-30T04:33:30;11.93;;;8.17;;
9449;SDS011;4763;48.370;10.874;2024-01-30T04:35:56;10.97;;;7.60;;
9449;SDS011;4763;48.370;10.874;2024-01-30T04:38:25;15.90;;;8.17;;
9449;SDS011;4763;48.370;10.874;2024-01-30T04:40:51;11.60;;;7.80;;
9449;SDS011;4763;48.370;10.874;2024-01-30T04:43:18;11.27;;;8.00;;
9449;SDS011;4763;48.370;10.874;2024-01-30T04:45:45;14.50;;;8.13;;
9449;SDS011;4763;48.370;10.874;2024-01-30T04:48:12;13.40;;;8.07;;
9449;SDS011;4763;48.370;10.874;2024-01-30T04:50:39;11.00;;;7.50;;
9449;SDS011;4763;48.370;10.874;2024-01-30T04:53:06;12.53;;;7.27;;
9449;SDS011;4763;48.370;10.874;2024-01-30T04:55:34;11.47;;;7.87;;
9449;SDS011;4763;48.370;10.874;2024-01-30T04:58:01;14.40;;;8.00;;
9449;SDS011;4763;48.370;10.874;2024-01-30T05:00:28;19.03;;;10.20;;
9449;SDS011;4763;48.370;10.874;2024-01-30T05:02:55;26.20;;;11.20;;
9449;SDS011;4763;48.370;10.874;2024-01-30T05:05:22;22.63;;;10.93;;
9449;SDS011;4763;48.370;10.874;2024-01-30T05:07:49;25.37;;;11.90;;
9449;SDS011;4763;48.370;10.874;2024-01-30T05:10:16;26.87;;;13.40;;
9449;SDS011;4763;48.370;10.874;2024-01-30T05:12:44;24.97;;;12.13;;
9449;SDS011;4763;48.370;10.874;2024-01-30T05:15:11;27.27;;;12.60;;
9449;SDS011;4763;48.370;10.874;2024-01-30T05:17:38;22.40;;;11.10;;
9449;SDS011;4763;48.370;10.874;2024-01-30T05:20:05;21.63;;;11.30;;
9449;SDS011;4763;48.370;10.874;2024-01-30T05:22:34;21.40;;;11.33;;
9449;SDS011;4763;48.370;10.874;2024-01-30T05:25:04;19.03;;;10.33;;
9449;SDS011;4763;48.370;10.874;2024-01-30T05:27:31;18.20;;;9.47;;
9449;SDS011;4763;48.370;10.874;2024-01-30T05:30:00;17.23;;;8.93;;
9449;SDS011;4763;48.370;10.874;2024-01-30T05:32:27;17.13;;;9.40;;
9449;SDS011;4763;48.370;10.874;2024-01-30T05:34:53;13.60;;;7.87;;
9449;SDS011;4763;48.370;10.874;2024-01-30T05:37:20;17.20;;;8.67;;
9449;SDS011;4763;48.370;10.874;2024-01-30T05:39:47;17.53;;;8.23;;
9449;SDS011;4763;48.370;10.874;2024-01-30T05:42:14;13.30;;;8.20;;
9449;SDS011;4763;48.370;10.874;2024-01-30T05:44:42;10.93;;;7.30;;
9449;SDS011;4763;48.370;10.874;2024-01-30T05:47:10;14.60;;;7.43;;
9449;SDS011;4763;48.370;10.874;2024-01-30T05:49:37;12.10;;;7.70;;
9449;SDS011;4763;48.370;10.874;2024-01-30T05:52:04;10.80;;;7.17;;
9449;SDS011;4763;48.370;10.874;2024-01-30T05:54:32;12.00;;;7.80;;
9449;SDS011;4763;48.370;10.874;2024-01-30T05:56:59;13.77;;;7.97;;
9449;SDS011;4763;48.370;10.874;2024-01-30T05:59:25;10.47;;;7.27;;
9449;SDS011;4763;48.370;10.874;2024-01-30T06:01:52;13.13;;;8.20;;
9449;SDS011;4763;48.370;10.874;2024-01-30T06:04:23;11.23;;;7.47;;
9449;SDS011;4763;48.370;10.874;2024-01-30T06:06:50;13.10;;;7.60;;
9449;SDS011;4763;48.370;10.874;2024-01-30T06:09:17;13.33;;;8.13;;
9449;SDS011;4763;48.370;10.874;2024-01-30T06:11:44;8.77;;;6.60;;
9449;SDS011;4763;48.370;10.874;2024-01-30T06:14:11;12.87;;;7.73;;
9449;SDS011;4763;48.370;10.874;2024-01-30T06:16:38;11.87;;;7.63;;
9449;SDS011;4763;48.370;10.874;2024-01-30T06:19:05;18.20;;;8.03;;
9449;SDS011;4763;48.370;10.874;2024-01-30T06:21:33;11.60;;;7.67;;
9449;SDS011;4763;48.370;10.874;2024-01-30T06:24:01;10.47;;;7.37;;
9449;SDS011;4763;48.370;10.874;2024-01-30T06:26:28;17.07;;;6.83;;
9449;SDS011;4763;48.370;10.874;2024-01-30T06:28:55;12.23;;;7.90;;
9449;SDS011;4763;48.370;10.874;2024-01-30T06:31:22;12.13;;;7.30;;
9449;SDS011;4763;48.370;10.874;2024-01-30T06:33:49;13.93;;;7.37;;
9449;SDS011;4763;48.370;10.874;2024-01-30T06:36:16;11.70;;;8.37;;
9449;SDS011;4763;48.370;10.874;2024-01-30T06:38:44;10.03;;;7.33;;
9449;SDS011;4763;48.370;10.874;2024-01-30T06:41:11;10.23;;;7.17;;
9449;SDS011;4763;48.370;10.874;2024-01-30T06:43:38;12.80;;;6.90;;
9449;SDS011;4763;48.370;10.874;2024-01-30T06:46:05;12.40;;;7.50;;
9449;SDS011;4763;48.370;10.874;2024-01-30T06:48:32;13.93;;;7.97;;
9449;SDS011;4763;48.370;10.874;2024-01-30T06:50:59;13.83;;;7.20;;
9449;SDS011;4763;48.370;10.874;2024-01-30T06:53:26;10.63;;;7.27;;
9449;SDS011;4763;48.370;10.874;2024-01-30T06:55:55;12.33;;;7.57;;
9449;SDS011;4763;48.370;10.874;2024-01-30T06:58:22;10.60;;;7.33;;
9449;SDS011;4763;48.370;10.874;2024-01-30T07:00:49;10.50;;;7.10;;
9449;SDS011;4763;48.370;10.874;2024-01-30T07:03:16;12.50;;;7.17;;
9449;SDS011;4763;48.370;10.874;2024-01-30T07:05:43;12.13;;;6.93;;
9449;SDS011;4763;48.370;10.874;2024-01-30T07:08:10;9.10;;;6.77;;
9449;SDS011;4763;48.370;10.874;2024-01-30T07:10:37;9.00;;;6.40;;
9449;SDS011;4763;48.370;10.874;2024-01-30T07:13:05;12.83;;;6.90;;
9449;SDS011;4763;48.370;10.874;2024-01-30T07:15:33;13.50;;;7.10;;
9449;SDS011;4763;48.370;10.874;2024-01-30T07:18:02;12.27;;;7.80;;
9449;SDS011;4763;48.370;10.874;2024-01-30T07:20:29;10.53;;;6.93;;
9449;SDS011;4763;48.370;10.874;2024-01-30T07:22:57;15.90;;;7.60;;
9449;SDS011;4763;48.370;10.874;2024-01-30T07:25:24;12.37;;;7.57;;
9449;SDS011;4763;48.370;10.874;2024-01-30T07:27:51;16.20;;;7.87;;
9449;SDS011;4763;48.370;10.874;2024-01-30T07:30:20;12.87;;;8.13;;
9449;SDS011;4763;48.370;10.874;2024-01-30T07:32:47;12.57;;;7.70;;
9449;SDS011;4763;48.370;10.874;2024-01-30T07:35:14;11.20;;;7.00;;
9449;SDS011;4763;48.370;10.874;2024-01-30T07:37:41;13.13;;;7.93;;
9449;SDS011;4763;48.370;10.874;2024-01-30T07:40:08;11.97;;;7.80;;
9449;SDS011;4763;48.370;10.874;2024-01-30T07:42:35;12.83;;;8.10;;
9449;SDS011;4763;48.370;10.874;2024-01-30T07:45:03;11.00;;;7.00;;
9449;SDS011;4763;48.370;10.874;2024-01-30T07:47:31;11.57;;;8.10;;
9449;SDS011;4763;48.370;10.874;2024-01-30T07:49:58;13.87;;;8.13;;
9449;SDS011;4763;48.370;10.874;2024-01-30T07:52:25;11.50;;;8.37;;
9449;SDS011;4763;48.370;10.874;2024-01-30T07:54:52;11.43;;;7.33;;
9449;SDS011;4763;48.370;10.874;2024-01-30T07:57:20;10.93;;;7.57;;
9449;SDS011;4763;48.370;10.874;2024-01-30T07:59:47;14.73;;;8.43;;
9449;SDS011;4763;48.370;10.874;2024-01-30T08:02:14;13.63;;;8.20;;
9449;SDS011;4763;48.370;10.874;2024-01-30T08:04:42;12.60;;;8.00;;
9449;SDS011;4763;48.370;10.874;2024-01-30T08:07:13;12.87;;;7.33;;
9449;SDS011;4763;48.370;10.874;2024-01-30T08:09:40;10.70;;;6.77;;
9449;SDS011;4763;48.370;10.874;2024-01-30T08:12:07;15.37;;;8.33;;
9449;SDS011;4763;48.370;10.874;2024-01-30T08:14:34;10.50;;;7.27;;
9449;SDS011;4763;48.370;10.874;2024-01-30T08:17:02;11.27;;;7.30;;
9449;SDS011;4763;48.370;10.874;2024-01-30T08:19:29;9.43;;;6.60;;
9449;SDS011;4763;48.370;10.874;2024-01-30T08:21:57;14.20;;;8.67;;
9449;SDS011;4763;48.370;10.874;2024-01-30T08:24:24;12.83;;;7.70;;
9449;SDS011;4763;48.370;10.874;2024-01-30T08:26:51;11.97;;;7.30;;
9449;SDS011;4763;48.370;10.874;2024-01-30T08:29:18;12.70;;;7.87;;
9449;SDS011;4763;48.370;10.874;2024-01-30T08:31:44;9.00;;;6.50;;
9449;SDS011;4763;48.370;10.874;2024-01-30T08:34:12;11.80;;;7.53;;
9449;SDS011;4763;48.370;10.874;2024-01-30T08:36:39;12.50;;;6.27;;
9449;SDS011;4763;48.370;10.874;2024-01-30T08:39:07;9.77;;;6.17;;
9449;SDS011;4763;48.370;10.874;2024-01-30T08:41:34;9.87;;;6.70;;
9449;SDS011;4763;48.370;10.874;2024-01-30T08:44:00;10.27;;;6.63;;
9449;SDS011;4763;48.370;10.874;2024-01-30T08:46:31;10.67;;;6.13;;
9449;SDS011;4763;48.370;10.874;2024-01-30T08:48:59;8.67;;;6.10;;
9449;SDS011;4763;48.370;10.874;2024-01-30T08:51:26;10.57;;;5.97;;
9449;SDS011;4763;48.370;10.874;2024-01-30T08:53:52;9.13;;;6.23;;
9449;SDS011;4763;48.370;10.874;2024-01-30T08:56:21;9.20;;;5.77;;
9449;SDS011;4763;48.370;10.874;2024-01-30T08:58:48;10.97;;;5.70;;
9449;SDS011;4763;48.370;10.874;2024-01-30T09:01:15;6.70;;;4.93;;
9449;SDS011;4763;48.370;10.874;2024-01-30T09:03:42;10.23;;;5.53;;
9449;SDS011;4763;48.370;10.874;2024-01-30T09:06:14;7.93;;;5.33;;
9449;SDS011;4763;48.370;10.874;2024-01-30T09:08:41;8.67;;;5.33;;
9449;SDS011;4763;48.370;10.874;2024-01-30T09:11:14;11.83;;;5.77;;
9449;SDS011;4763;48.370;10.874;2024-01-30T09:13:46;8.43;;;4.90;;
9449;SDS011;4763;48.370;10.874;2024-01-30T09:16:12;11.27;;;5.50;;
9449;SDS011;4763;48.370;10.874;2024-01-30T09:18:41;7.77;;;5.47;;
9449;SDS011;4763;48.370;10.874;2024-01-30T09:21:16;9.53;;;5.40;;
9449;SDS011;4763;48.370;10.874;2024-01-30T09:42:37;19.07;;;6.17;;
9449;SDS011;4763;48.370;10.874;2024-01-30T09:45:05;10.13;;;4.80;;
9449;SDS011;4763;48.370;10.874;2024-01-30T09:47:33;13.07;;;4.97;;
9449;SDS011;4763;48.370;10.874;2024-01-30T09:50:09;10.13;;;5.13;;
9449;SDS011;4763;48.370;10.874;2024-01-30T09:52:51;7.70;;;5.20;;
9449;SDS011;4763;48.370;10.874;2024-01-30T09:55:21;8.70;;;5.83;;
9449;SDS011;4763;48.370;10.874;2024-01-30T09:57:49;8.60;;;5.10;;
9449;SDS011;4763;48.370;10.874;2024-01-30T10:00:16;9.27;;;4.93;;
9449;SDS011;4763;48.370;10.874;2024-01-30T10:02:44;7.70;;;4.77;;
9449;SDS011;4763;48.370;10.874;2024-01-30T10:05:15;7.90;;;4.83;;
9449;SDS011;4763;48.370;10.874;2024-01-30T10:07:52;8.07;;;4.90;;
9449;SDS011;4763;48.370;10.874;2024-01-30T10:10:21;8.00;;;5.27;;
9449;SDS011;4763;48.370;10.874;2024-01-30T10:12:50;9.77;;;4.63;;
9449;SDS011;4763;48.370;10.874;2024-01-30T10:15:17;10.30;;;5.50;;
9449;SDS011;4763;48.370;10.874;2024-01-30T10:17:44;12.17;;;4.90;;
9449;SDS011;4763;48.370;10.874;2024-01-30T10:20:11;8.30;;;4.90;;
9449;SDS011;4763;48.370;10.874;2024-01-30T10:22:39;6.00;;;4.40;;
9449;SDS011;4763;48.370;10.874;2024-01-30T10:25:07;5.70;;;4.13;;
9449;SDS011;4763;48.370;10.874;2024-01-30T10:27:35;4.47;;;3.70;;
9449;SDS011;4763;48.370;10.874;2024-01-30T10:30:04;9.30;;;4.23;;
9449;SDS011;4763;48.370;10.874;2024-01-30T10:32:32;4.37;;;3.20;;
9449;SDS011;4763;48.370;10.874;2024-01-30T10:34:59;4.47;;;3.03;;
9449;SDS011;4763;48.370;10.874;2024-01-30T10:37:26;5.03;;;3.27;;
9449;SDS011;4763;48.370;10.874;2024-01-30T10:40:02;4.77;;;3.10;;
9449;SDS011;4763;48.370;10.874;2024-01-30T10:42:31;4.13;;;3.10;;
9449;SDS011;4763;48.370;10.874;2024-01-30T10:45:00;5.23;;;3.17;;
9449;SDS011;4763;48.370;10.874;2024-01-30T10:47:34;10.60;;;3.40;;
9449;SDS011;4763;48.370;10.874;2024-01-30T10:50:02;5.87;;;2.83;;
9449;SDS011;4763;48.370;10.874;2024-01-30T10:52:33;4.17;;;2.77;;
9449;SDS011;4763;48.370;10.874;2024-01-30T10:55:00;4.57;;;3.20;;
9449;SDS011;4763;48.370;10.874;2024-01-30T10:57:31;3.53;;;2.73;;
9449;SDS011;4763;48.370;10.874;2024-01-30T11:00:02;4.87;;;3.70;;
9449;SDS011;4763;48.370;10.874;2024-01-30T11:02:36;5.83;;;2.97;;
9449;SDS011;4763;48.370;10.874;2024-01-30T11:05:05;7.87;;;3.63;;
9449;SDS011;4763;48.370;10.874;2024-01-30T11:07:33;5.43;;;3.23;;
9449;SDS011;4763;48.370;10.874;2024-01-30T11:10:01;10.10;;;3.70;;
9449;SDS011;4763;48.370;10.874;2024-01-30T11:12:29;5.43;;;3.10;;
9449;SDS011;4763;48.370;10.874;2024-01-30T11:15:01;7.17;;;3.40;;
9449;SDS011;4763;48.370;10.874;2024-01-30T11:17:40;8.03;;;3.47;;
9449;SDS011;4763;48.370;10.874;2024-01-30T11:20:09;5.00;;;3.33;;
9449;SDS011;4763;48.370;10.874;2024-01-30T11:22:40;8.27;;;3.80;;
9449;SDS011;4763;48.370;10.874;2024-01-30T11:25:11;5.83;;;3.77;;
9449;SDS011;4763;48.370;10.874;2024-01-30T11:27:38;8.40;;;4.40;;
9449;SDS011;4763;48.370;10.874;2024-01-30T11:30:06;7.47;;;4.80;;
9449;SDS011;4763;48.370;10.874;2024-01-30T11:32:34;7.13;;;4.73;;
9449;SDS011;4763;48.370;10.874;2024-01-30T11:35:04;6.47;;;4.40;;
9449;SDS011;4763;48.370;10.874;2024-01-30T11:37:34;11.67;;;5.57;;
9449;SDS011;4763;48.370;10.874;2024-01-30T11:40:04;10.77;;;5.17;;
9449;SDS011;4763;48.370;10.874;2024-01-30T11:42:32;6.03;;;3.80;;
9449;SDS011;4763;48.370;10.874;2024-01-30T11:45:00;6.73;;;3.97;;
9449;SDS011;4763;48.370;10.874;2024-01-30T11:47:28;5.30;;;3.83;;
9449;SDS011;4763;48.370;10.874;2024-01-30T11:49:56;4.97;;;3.23;;
9449;SDS011;4763;48.370;10.874;2024-01-30T11:52:24;6.63;;;3.93;;
9449;SDS011;4763;48.370;10.874;2024-01-30T11:54:51;4.63;;;3.53;;
9449;SDS011;4763;48.370;10.874;2024-01-30T11:57:19;5.60;;;3.83;;
9449;SDS011;4763;48.370;10.874;2024-01-30T11:59:45;5.40;;;3.70;;
9449;SDS011;4763;48.370;10.874;2024-01-30T12:02:15;7.77;;;3.77;;
9449;SDS011;4763;48.370;10.874;2024-01-30T12:04:43;4.83;;;3.50;;
9449;SDS011;4763;48.370;10.874;2024-01-30T12:07:12;5.27;;;3.70;;
9449;SDS011;4763;48.370;10.874;2024-01-30T12:09:51;6.60;;;4.07;;
9449;SDS011;4763;48.370;10.874;2024-01-30T12:12:18;6.00;;;3.60;;
9449;SDS011;4763;48.370;10.874;2024-01-30T12:14:45;4.97;;;3.57;;
9449;SDS011;4763;48.370;10.874;2024-01-30T12:17:22;7.27;;;4.20;;
9449;SDS011;4763;48.370;10.874;2024-01-30T12:19:49;5.87;;;3.53;;
9449;SDS011;4763;48.370;10.874;2024-01-30T12:22:22;8.57;;;4.37;;
9449;SDS011;4763;48.370;10.874;2024-01-30T12:24:51;5.57;;;4.30;;
9449;SDS011;4763;48.370;10.874;2024-01-30T12:27:17;6.73;;;4.00;;
9449;SDS011;4763;48.370;10.874;2024-01-30T12:29:44;5.83;;;3.83;;
9449;SDS011;4763;48.370;10.874;2024-01-30T12:32:14;7.83;;;3.67;;
9449;SDS011;4763;48.370;10.874;2024-01-30T12:34:41;6.50;;;4.10;;
9449;SDS011;4763;48.370;10.874;2024-01-30T12:37:08;6.30;;;3.93;;
9449;SDS011;4763;48.370;10.874;2024-01-30T12:39:36;6.37;;;4.30;;
9449;SDS011;4763;48.370;10.874;2024-01-30T12:42:05;5.33;;;4.20;;
9449;SDS011;4763;48.370;10.874;2024-01-30T12:44:32;6.70;;;4.13;;
9449;SDS011;4763;48.370;10.874;2024-01-30T12:47:02;6.60;;;4.27;;
9449;SDS011;4763;48.370;10.874;2024-01-30T12:49:30;6.87;;;4.53;;
9449;SDS011;4763;48.370;10.874;2024-01-30T12:51:58;5.33;;;4.00;;
9449;SDS011;4763;48.370;10.874;2024-01-30T12:54:25;6.27;;;4.50;;
9449;SDS011;4763;48.370;10.874;2024-01-30T12:56:52;8.03;;;4.40;;
9449;SDS011;4763;48.370;10.874;2024-01-30T12:59:20;7.90;;;4.87;;
9449;SDS011;4763;48.370;10.874;2024-01-30T13:01:48;6.20;;;4.77;;
9449;SDS011;4763;48.370;10.874;2024-01-30T13:04:15;11.27;;;5.30;;
9449;SDS011;4763;48.370;10.874;2024-01-30T13:06:41;9.33;;;5.20;;
9449;SDS011;4763;48.370;10.874;2024-01-30T13:09:08;11.40;;;4.57;;
9449;SDS011;4763;48.370;10.874;2024-01-30T13:11:35;9.23;;;5.57;;
9449;SDS011;4763;48.370;10.874;2024-01-30T13:14:02;8.17;;;5.13;;
9449;SDS011;4763;48.370;10.874;2024-01-30T13:16:30;6.00;;;4.97;;
9449;SDS011;4763;48.370;10.874;2024-01-30T13:18:57;8.63;;;5.13;;
9449;SDS011;4763;48.370;10.874;2024-01-30T13:21:23;8.83;;;5.37;;
9449;SDS011;4763;48.370;10.874;2024-01-30T13:23:50;6.93;;;5.10;;
9449;SDS011;4763;48.370;10.874;2024-01-30T13:26:19;8.43;;;4.00;;
9449;SDS011;4763;48.370;10.874;2024-01-30T13:28:46;13.27;;;5.53;;
9449;SDS011;4763;48.370;10.874;2024-01-30T13:31:13;10.43;;;4.53;;
9449;SDS011;4763;48.370;10.874;2024-01-30T13:33:42;6.07;;;4.23;;
9449;SDS011;4763;48.370;10.874;2024-01-30T13:36:12;8.53;;;4.27;;
9449;SDS011;4763;48.370;10.874;2024-01-30T13:38:39;13.97;;;5.03;;
9449;SDS011;4763;48.370;10.874;2024-01-30T13:41:05;7.90;;;4.80;;
9449;SDS011;4763;48.370;10.874;2024-01-30T13:43:32;7.27;;;4.20;;
9449;SDS011;4763;48.370;10.874;2024-01-30T13:45:59;6.70;;;4.33;;
9449;SDS011;4763;48.370;10.874;2024-01-30T13:48:26;7.80;;;4.60;;
9449;SDS011;4763;48.370;10.874;2024-01-30T13:50:54;7.73;;;5.10;;
9449;SDS011;4763;48.370;10.874;2024-01-30T13:53:21;7.20;;;3.80;;
9449;SDS011;4763;48.370;10.874;2024-01-30T13:55:48;7.20;;;4.80;;
9449;SDS011;4763;48.370;10.874;2024-01-30T13:58:15;5.70;;;4.07;;
9449;SDS011;4763;48.370;10.874;2024-01-30T14:00:42;8.43;;;4.50;;
9449;SDS011;4763;48.370;10.874;2024-01-30T14:03:09;7.57;;;4.60;;
9449;SDS011;4763;48.370;10.874;2024-01-30T14:05:36;7.63;;;4.63;;
9449;SDS011;4763;48.370;10.874;2024-01-30T14:08:04;7.07;;;4.20;;
9449;SDS011;4763;48.370;10.874;2024-01-30T14:10:32;7.87;;;3.70;;
9449;SDS011;4763;48.370;10.874;2024-01-30T14:12:59;7.10;;;5.10;;
9449;SDS011;4763;48.370;10.874;2024-01-30T14:15:26;8.47;;;5.30;;
9449;SDS011;4763;48.370;10.874;2024-01-30T14:17:53;6.77;;;4.93;;
9449;SDS011;4763;48.370;10.874;2024-01-30T14:20:20;8.50;;;5.10;;
9449;SDS011;4763;48.370;10.874;2024-01-30T14:22:47;5.53;;;4.03;;
9449;SDS011;4763;48.370;10.874;2024-01-30T14:25:15;11.37;;;4.27;;
9449;SDS011;4763;48.370;10.874;2024-01-30T14:27:42;6.00;;;4.47;;
9449;SDS011;4763;48.370;10.874;2024-01-30T14:30:09;5.83;;;4.07;;
9449;SDS011;4763;48.370;10.874;2024-01-30T14:32:37;6.97;;;4.10;;
9449;SDS011;4763;48.370;10.874;2024-01-30T14:35:05;5.57;;;4.13;;
9449;SDS011;4763;48.370;10.874;2024-01-30T14:37:34;7.03;;;4.87;;
9449;SDS011;4763;48.370;10.874;2024-01-30T14:40:01;6.63;;;4.40;;
9449;SDS011;4763;48.370;10.874;2024-01-30T14:42:29;6.40;;;4.03;;
9449;SDS011;4763;48.370;10.874;2024-01-30T14:44:57;5.00;;;3.60;;
9449;SDS011;4763;48.370;10.874;2024-01-30T14:47:26;6.97;;;3.77;;
9449;SDS011;4763;48.370;10.874;2024-01-30T14:49:53;8.60;;;3.70;;
9449;SDS011;4763;48.370;10.874;2024-01-30T14:52:21;5.93;;;3.43;;
9449;SDS011;4763;48.370;10.874;2024-01-30T14:54:49;8.47;;;4.13;;
9449;SDS011;4763;48.370;10.874;2024-01-30T14:57:16;8.30;;;4.43;;
9449;SDS011;4763;48.370;10.874;2024-01-30T14:59:45;8.70;;;4.70;;
9449;SDS011;4763;48.370;10.874;2024-01-30T15:02:13;7.93;;;4.20;;
9449;SDS011;4763;48.370;10.874;2024-01-30T15:04:40;7.53;;;3.83;;
9449;SDS011;4763;48.370;10.874;2024-01-30T15:07:07;7.23;;;3.60;;
9449;SDS011;4763;48.370;10.874;2024-01-30T15:09:34;8.77;;;4.23;;
9449;SDS011;4763;48.370;10.874;2024-01-30T15:12:03;7.63;;;4.30;;
9449;SDS011;4763;48.370;10.874;2024-01-30T15:14:33;9.67;;;4.80;;
9449;SDS011;4763;48.370;10.874;2024-01-30T15:17:02;6.80;;;4.93;;
9449;SDS011;4763;48.370;10.874;2024-01-30T15:19:32;6.53;;;4.40;;
9449;SDS011;4763;48.370;10.874;2024-01-30T15:22:00;8.00;;;5.17;;
9449;SDS011;4763;48.370;10.874;2024-01-30T15:24:29;7.90;;;4.47;;
9449;SDS011;4763;48.370;10.874;2024-01-30T15:26:57;9.43;;;4.70;;
9449;SDS011;4763;48.370;10.874;2024-01-30T15:29:26;7.90;;;5.33;;
9449;SDS011;4763;48.370;10.874;2024-01-30T15:31:53;7.70;;;4.70;;
9449;SDS011;4763;48.370;10.874;2024-01-30T15:34:21;8.77;;;4.30;;
9449;SDS011;4763;48.370;10.874;2024-01-30T15:36:49;8.40;;;4.57;;
9449;SDS011;4763;48.370;10.874;2024-01-30T15:39:17;5.77;;;4.33;;
9449;SDS011;4763;48.370;10.874;2024-01-30T15:41:44;10.53;;;4.57;;
9449;SDS011;4763;48.370;10.874;2024-01-30T15:44:11;7.73;;;4.43;;
9449;SDS011;4763;48.370;10.874;2024-01-30T15:46:38;8.23;;;4.60;;
9449;SDS011;4763;48.370;10.874;2024-01-30T15:49:05;6.57;;;4.50;;
9449;SDS011;4763;48.370;10.874;2024-01-30T15:51:33;8.07;;;4.40;;
9449;SDS011;4763;48.370;10.874;2024-01-30T15:54:00;6.43;;;4.63;;
9449;SDS011;4763;48.370;10.874;2024-01-30T15:56:27;9.10;;;4.80;;
9449;SDS011;4763;48.370;10.874;2024-01-30T15:58:54;7.93;;;5.37;;
9449;SDS011;4763;48.370;10.874;2024-01-30T16:01:22;8.20;;;5.00;;
9449;SDS011;4763;48.370;10.874;2024-01-30T16:03:49;12.37;;;5.57;;
9449;SDS011;4763;48.370;10.874;2024-01-30T16:06:16;8.70;;;4.50;;
9449;SDS011;4763;48.370;10.874;2024-01-30T16:08:44;9.17;;;5.07;;
9449;SDS011;4763;48.370;10.874;2024-01-30T16:11:11;8.50;;;5.30;;
9449;SDS011;4763;48.370;10.874;2024-01-30T16:13:38;9.80;;;5.50;;
9449;SDS011;4763;48.370;10.874;2024-01-30T16:16:05;7.53;;;4.97;;
9449;SDS011;4763;48.370;10.874;2024-01-30T16:18:32;10.87;;;4.70;;
9449;SDS011;4763;48.370;10.874;2024-01-30T16:21:00;8.53;;;5.57;;
9449;SDS011;4763;48.370;10.874;2024-01-30T16:23:27;12.67;;;6.23;;
9449;SDS011;4763;48.370;10.874;2024-01-30T16:26:10;11.80;;;5.67;;
9449;SDS011;4763;48.370;10.874;2024-01-30T16:28:38;12.83;;;6.40;;
9449;SDS011;4763;48.370;10.874;2024-01-30T16:31:05;15.60;;;6.20;;
9449;SDS011;4763;48.370;10.874;2024-01-30T16:33:32;10.00;;;5.30;;
9449;SDS011;4763;48.370;10.874;2024-01-30T16:35:59;10.80;;;6.20;;
9449;SDS011;4763;48.370;10.874;2024-01-30T16:38:26;12.93;;;6.73;;
9449;SDS011;4763;48.370;10.874;2024-01-30T16:40:52;10.97;;;6.63;;
9449;SDS011;4763;48.370;10.874;2024-01-30T16:43:21;10.60;;;6.70;;
9449;SDS011;4763;48.370;10.874;2024-01-30T16:45:48;11.27;;;6.43;;
9449;SDS011;4763;48.370;10.874;2024-01-30T16:48:14;11.67;;;6.10;;
9449;SDS011;4763;48.370;10.874;2024-01-30T16:50:43;9.50;;;6.10;;
9449;SDS011;4763;48.370;10.874;2024-01-30T16:53:10;8.43;;;5.80;;
9449;SDS011;4763;48.370;10.874;2024-01-30T16:55:37;11.67;;;7.40;;
9449;SDS011;4763;48.370;10.874;2024-01-30T16:58:04;19.13;;;7.40;;
9449;SDS011;4763;48.370;10.874;2024-01-30T17:00:32;10.00;;;6.57;;
9449;SDS011;4763;48.370;10.874;2024-01-30T17:02:59;13.50;;;7.03;;
9449;SDS011;4763;48.370;10.874;2024-01-30T17:05:26;11.63;;;6.70;;
9449;SDS011;4763;48.370;10.874;2024-01-30T17:07:53;11.83;;;7.57;;
9449;SDS011;4763;48.370;10.874;2024-01-30T17:10:20;14.30;;;7.00;;
9449;SDS011;4763;48.370;10.874;2024-01-30T17:12:47;10.63;;;7.10;;
9449;SDS011;4763;48.370;10.874;2024-01-30T17:15:14;15.27;;;7.90;;
9449;SDS011;4763;48.370;10.874;2024-01-30T17:17:42;14.67;;;8.67;;
9449;SDS011;4763;48.370;10.874;2024-01-30T17:20:10;13.82;;;8.75;;
9449;SDS011;4763;48.370;10.874;2024-01-30T17:22:37;12.73;;;8.13;;
9449;SDS011;4763;48.370;10.874;2024-01-30T17:25:05;13.47;;;8.27;;
9449;SDS011;4763;48.370;10.874;2024-01-30T17:27:32;16.27;;;8.13;;
9449;SDS011;4763;48.370;10.874;2024-01-30T17:29:59;18.23;;;9.47;;
9449;SDS011;4763;48.370;10.874;2024-01-30T17:32:26;14.30;;;8.83;;
9449;SDS011;4763;48.370;10.874;2024-01-30T17:34:55;16.17;;;9.57;;
9449;SDS011;4763;48.370;10.874;2024-01-30T17:37:22;17.60;;;10.60;;
9449;SDS011;4763;48.370;10.874;2024-01-30T17:39:49;22.87;;;10.73;;
9449;SDS011;4763;48.370;10.874;2024-01-30T17:42:16;16.93;;;10.80;;
9449;SDS011;4763;48.370;10.874;2024-01-30T17:44:46;18.87;;;11.27;;
9449;SDS011;4763;48.370;10.874;2024-01-30T17:47:13;19.00;;;12.03;;
9449;SDS011;4763;48.370;10.874;2024-01-30T17:49:40;22.13;;;11.87;;
9449;SDS011;4763;48.370;10.874;2024-01-30T17:52:09;18.00;;;11.47;;